Time;durP1;ratioP1;P1;durP2;ratioP2;P2;SDS_P1;SDS_P2;PMS_P1;PMS_P2;Temp;Humidity;BMP_temperature;BMP_pressure;BME280_temperature;BME280_humidity;BME280_pressure;Samples;Min_cycle;Max_cycle;Signal;HPM_P1;HPM_P2
2024/02/13 00:00:12;;;;;;;3.17;1.02;;;20.70;38.50;;;;;;5043854;28;20498;-63
2024/02/13 00:02:40;;;;;;;1.73;1.00;;;20.70;38.50;;;;;;5046034;28;20494;-63
2024/02/13 00:05:08;;;;;;;1.80;0.93;;;20.60;38.50;;;;;;5048658;28;20507;-62
2024/02/13 00:07:34;;;;;;;2.20;1.05;;;20.70;38.50;;;;;;5045309;28;20029;-61
2024/02/13 00:10:01;;;;;;;1.55;0.70;;;20.60;38.40;;;;;;5040911;28;20116;-62
2024/02/13 00:12:26;;;;;;;2.13;0.90;;;20.60;38.40;;;;;;5045439;28;20029;-64
2024/02/13 00:14:52;;;;;;;2.72;1.02;;;20.60;38.40;;;;;;5046653;28;20032;-62
2024/02/13 00:17:18;;;;;;;2.28;1.08;;;20.60;38.40;;;;;;5038906;28;20036;-62
2024/02/13 00:19:44;;;;;;;2.08;1.00;;;20.60;38.40;;;;;;5043925;28;20060;-63
2024/02/13 00:22:12;;;;;;;4.25;1.38;;;20.60;38.40;;;;;;5047404;28;20049;-62
2024/02/13 00:24:39;;;;;;;4.22;1.20;;;20.60;38.40;;;;;;5048261;28;20029;-63
2024/02/13 00:27:05;;;;;;;1.77;0.93;;;20.60;38.40;;;;;;5024308;28;20033;-61
2024/02/13 00:29:30;;;;;;;3.13;1.20;;;20.60;38.40;;;;;;5045140;28;20038;-62
2024/02/13 00:31:57;;;;;;;1.73;0.98;;;20.60;38.40;;;;;;5046186;28;20047;-62
2024/02/13 00:34:23;;;;;;;2.78;1.08;;;20.60;38.40;;;;;;5047018;28;20355;-63
2024/02/13 00:36:49;;;;;;;2.85;1.20;;;20.50;38.40;;;;;;5048119;28;20025;-63
2024/02/13 00:39:16;;;;;;;1.73;1.00;;;20.60;38.40;;;;;;5028639;28;20137;-62
2024/02/13 00:41:42;;;;;;;2.75;1.20;;;20.50;38.40;;;;;;5028669;28;20052;-62
2024/02/13 00:44:08;;;;;;;1.73;1.02;;;20.50;38.40;;;;;;5031415;28;20027;-63
2024/02/13 00:46:34;;;;;;;2.25;1.13;;;20.50;38.40;;;;;;5026872;28;20030;-63
2024/02/13 00:49:02;;;;;;;3.15;1.20;;;20.50;38.40;;;;;;5027767;28;20104;-62
2024/02/13 00:51:28;;;;;;;1.63;1.02;;;20.50;38.40;;;;;;5029356;28;20072;-61
2024/02/13 00:53:54;;;;;;;2.00;1.00;;;20.50;38.30;;;;;;5032349;28;20026;-62
2024/02/13 00:56:21;;;;;;;2.35;1.10;;;20.50;38.30;;;;;;5024330;28;20030;-63
2024/02/13 00:58:47;;;;;;;2.17;1.10;;;20.50;38.30;;;;;;5027877;28;20025;-62
2024/02/13 01:01:13;;;;;;;1.92;1.10;;;20.50;38.30;;;;;;5029465;28;20037;-62
2024/02/13 01:03:40;;;;;;;2.40;1.20;;;20.50;38.30;;;;;;5030095;28;20032;-63
2024/02/13 01:06:07;;;;;;;1.85;0.88;;;20.50;38.30;;;;;;5029432;28;20079;-63
2024/02/13 01:08:37;;;;;;;3.47;1.58;;;20.50;38.30;;;;;;5027682;28;20017;-64
2024/02/13 01:11:03;;;;;;;2.38;1.23;;;20.50;38.30;;;;;;5029630;28;20103;-64
2024/02/13 01:13:31;;;;;;;2.80;1.17;;;20.50;38.30;;;;;;5030323;28;20115;-62
2024/02/13 01:15:57;;;;;;;2.67;1.05;;;20.50;38.30;;;;;;5030241;28;20107;-62
2024/02/13 01:18:24;;;;;;;1.98;1.00;;;20.40;38.20;;;;;;5026160;28;20084;-61
2024/02/13 01:20:50;;;;;;;2.33;1.00;;;20.40;38.20;;;;;;5027119;28;20041;-62
2024/02/13 01:23:16;;;;;;;2.05;0.90;;;20.40;38.20;;;;;;5027296;28;20044;-63
2024/02/13 01:25:41;;;;;;;2.63;0.90;;;20.40;38.20;;;;;;5031554;28;20040;-62
2024/02/13 01:28:07;;;;;;;2.95;1.35;;;20.40;38.20;;;;;;5026701;28;20033;-63
2024/02/13 01:30:34;;;;;;;2.50;1.15;;;20.40;38.20;;;;;;5030031;28;20030;-62
2024/02/13 01:33:01;;;;;;;1.67;0.93;;;20.40;38.20;;;;;;5029609;28;20036;-62
2024/02/13 01:35:27;;;;;;;1.73;0.90;;;20.40;38.20;;;;;;5029834;28;20026;-63
2024/02/13 01:37:53;;;;;;;1.83;1.05;;;20.40;38.10;;;;;;5026938;28;20033;-63
2024/02/13 01:40:19;;;;;;;3.45;1.33;;;20.40;38.10;;;;;;5039070;28;20119;-62
2024/02/13 01:42:48;;;;;;;1.75;1.05;;;20.40;38.10;;;;;;5050605;28;20025;-63
2024/02/13 01:45:14;;;;;;;2.38;1.20;;;20.40;38.10;;;;;;5049204;28;20091;-61
2024/02/13 01:47:44;;;;;;;1.17;0.88;;;20.30;38.10;;;;;;5042600;28;20029;-63
2024/02/13 01:50:14;;;;;;;1.50;1.08;;;20.30;38.10;;;;;;5048950;28;20391;-63
2024/02/13 01:52:42;;;;;;;2.13;1.13;;;20.30;38.10;;;;;;5051344;28;20035;-64
2024/02/13 01:55:10;;;;;;;3.13;1.40;;;20.30;38.10;;;;;;5047201;28;20024;-63
2024/02/13 01:57:39;;;;;;;1.95;1.38;;;20.30;38.10;;;;;;5027725;28;20368;-62
2024/02/13 02:00:08;;;;;;;3.55;1.40;;;20.30;38.00;;;;;;5043030;28;20052;-63
2024/02/13 02:02:38;;;;;;;2.60;1.05;;;20.30;38.10;;;;;;5044614;28;20095;-63
2024/02/13 02:05:07;;;;;;;2.00;1.13;;;20.30;38.00;;;;;;5049092;28;20021;-63
2024/02/13 02:07:33;;;;;;;2.97;1.40;;;20.30;38.10;;;;;;5047006;28;20025;-63
2024/02/13 02:09:59;;;;;;;1.90;1.23;;;20.30;38.00;;;;;;5047559;28;20039;-62
2024/02/13 02:12:25;;;;;;;2.05;1.17;;;20.30;38.00;;;;;;5048202;28;20021;-62
2024/02/13 02:14:52;;;;;;;2.05;1.15;;;20.30;38.00;;;;;;5044543;28;20094;-62
2024/02/13 02:17:18;;;;;;;1.88;1.30;;;20.30;38.00;;;;;;5046688;28;20036;-63
2024/02/13 02:19:44;;;;;;;2.45;1.20;;;20.30;38.00;;;;;;5047520;28;20130;-63
2024/02/13 02:22:10;;;;;;;2.08;1.20;;;20.30;38.00;;;;;;5047443;28;20033;-63
2024/02/13 02:24:36;;;;;;;1.95;1.20;;;20.30;38.00;;;;;;5040224;28;20038;-62
2024/02/13 02:27:02;;;;;;;2.83;1.50;;;20.20;37.90;;;;;;5040178;28;20472;-63
2024/02/13 02:29:28;;;;;;;3.03;1.40;;;20.20;37.90;;;;;;5043912;28;20040;-63
2024/02/13 02:31:54;;;;;;;2.17;1.05;;;20.20;37.90;;;;;;5046001;28;20028;-65
2024/02/13 02:34:20;;;;;;;2.60;1.58;;;20.20;37.90;;;;;;5044863;28;20126;-63
2024/02/13 02:36:50;;;;;;;3.28;1.80;;;20.30;38.00;;;;;;5040109;28;20113;-62
2024/02/13 02:39:18;;;;;;;2.08;1.23;;;20.20;37.90;;;;;;5041774;28;20099;-61
2024/02/13 02:41:45;;;;;;;2.58;1.15;;;20.20;37.90;;;;;;5050732;28;20029;-62
2024/02/13 02:44:11;;;;;;;2.63;1.33;;;20.20;37.90;;;;;;5046445;28;20029;-62
2024/02/13 02:46:38;;;;;;;2.63;1.23;;;20.20;37.90;;;;;;5041536;28;20333;-62
2024/02/13 02:49:05;;;;;;;1.75;1.00;;;20.20;37.90;;;;;;5045013;28;20033;-61
2024/02/13 02:51:31;;;;;;;1.88;1.10;;;20.20;37.90;;;;;;5042245;28;20029;-62
2024/02/13 02:53:57;;;;;;;1.92;1.35;;;20.20;37.90;;;;;;5051235;28;20079;-62
2024/02/13 02:56:23;;;;;;;2.83;1.30;;;20.20;37.90;;;;;;5051094;28;20036;-63
2024/02/13 02:58:49;;;;;;;2.15;1.20;;;20.20;37.90;;;;;;5040459;28;20033;-62
2024/02/13 03:01:16;;;;;;;3.13;1.40;;;20.20;37.90;;;;;;5045172;28;20057;-62
2024/02/13 03:03:42;;;;;;;2.22;1.30;;;20.20;37.90;;;;;;5047959;28;20108;-62
2024/02/13 03:06:08;;;;;;;1.52;1.08;;;20.20;37.90;;;;;;5042441;28;20105;-62
2024/02/13 03:08:34;;;;;;;2.90;1.30;;;20.10;37.80;;;;;;5024237;28;20353;-61
2024/02/13 03:11:00;;;;;;;1.65;1.23;;;20.10;37.80;;;;;;5033226;28;20022;-61
2024/02/13 03:13:26;;;;;;;2.42;1.20;;;20.10;37.80;;;;;;5047107;28;20083;-62
2024/02/13 03:15:52;;;;;;;4.03;1.00;;;20.10;37.80;;;;;;5040571;28;20017;-62
2024/02/13 03:18:18;;;;;;;2.40;1.30;;;20.10;37.90;;;;;;5028878;28;20048;-62
2024/02/13 03:20:44;;;;;;;1.80;1.10;;;20.10;38.00;;;;;;5045126;28;20037;-61
2024/02/13 03:23:10;;;;;;;2.42;1.48;;;20.10;38.00;;;;;;5048886;28;21592;-63
2024/02/13 03:25:36;;;;;;;2.72;1.30;;;20.10;38.60;;;;;;5040460;28;20088;-61
2024/02/13 03:28:04;;;;;;;2.00;1.20;;;20.10;37.90;;;;;;5044999;28;20021;-63
2024/02/13 03:30:30;;;;;;;3.15;1.50;;;20.10;37.90;;;;;;5041651;28;20040;-62
2024/02/13 03:32:55;;;;;;;1.67;1.20;;;20.10;37.90;;;;;;5047843;28;20025;-62
2024/02/13 03:35:21;;;;;;;2.85;1.50;;;20.10;37.90;;;;;;5043427;28;20099;-63
2024/02/13 03:37:47;;;;;;;3.13;1.30;;;20.10;37.90;;;;;;5049118;28;20032;-62
2024/02/13 03:40:15;;;;;;;2.33;1.42;;;20.10;37.90;;;;;;5044866;28;20491;-63
2024/02/13 03:42:43;;;;;;;1.77;1.20;;;20.10;37.90;;;;;;5041625;28;20166;-62
2024/02/13 03:45:10;;;;;;;2.30;1.13;;;20.10;37.90;;;;;;5039307;28;20089;-62
2024/02/13 03:47:36;;;;;;;2.15;1.15;;;20.10;37.80;;;;;;5043510;28;20101;-62
2024/02/13 03:50:02;;;;;;;1.80;1.45;;;20.10;37.80;;;;;;5039509;28;20021;-63
2024/02/13 03:52:29;;;;;;;1.75;0.95;;;20.10;37.80;;;;;;5041286;28;20032;-62
2024/02/13 03:54:55;;;;;;;2.40;1.30;;;20.00;37.80;;;;;;5045561;28;20029;-62
2024/02/13 03:57:21;;;;;;;2.55;1.40;;;20.00;37.80;;;;;;5043028;28;20029;-63
2024/02/13 03:59:47;;;;;;;3.15;1.20;;;20.10;37.80;;;;;;5025317;28;20026;-63
2024/02/13 04:02:12;;;;;;;1.92;1.20;;;20.00;37.80;;;;;;5045183;28;20448;-63
2024/02/13 04:04:38;;;;;;;2.90;1.40;;;20.00;37.80;;;;;;5043405;28;20359;-62
2024/02/13 04:07:04;;;;;;;2.20;1.40;;;20.00;37.80;;;;;;5030740;28;20029;-63
2024/02/13 04:09:31;;;;;;;2.42;1.60;;;20.00;37.80;;;;;;5045272;28;20044;-63
2024/02/13 04:11:57;;;;;;;4.07;1.77;;;20.00;37.80;;;;;;5044480;28;20037;-63
2024/02/13 04:14:23;;;;;;;3.38;1.63;;;20.00;37.70;;;;;;5048838;28;20027;-62
2024/02/13 04:16:49;;;;;;;2.22;1.48;;;20.00;37.70;;;;;;5046349;28;20025;-62
2024/02/13 04:19:16;;;;;;;2.03;1.23;;;20.00;37.70;;;;;;5047462;28;20037;-61
2024/02/13 04:21:41;;;;;;;3.38;1.45;;;20.00;37.80;;;;;;5045527;28;20353;-63
2024/02/13 04:24:07;;;;;;;2.67;1.38;;;20.00;37.80;;;;;;5029936;28;20036;-63
2024/02/13 04:26:38;;;;;;;1.55;1.20;;;20.00;37.70;;;;;;5048085;28;20042;-63
2024/02/13 04:29:03;;;;;;;3.45;1.42;;;20.00;37.80;;;;;;5045743;28;20087;-63
2024/02/13 04:31:29;;;;;;;3.08;1.67;;;20.00;37.80;;;;;;5047703;28;20432;-64
2024/02/13 04:33:55;;;;;;;2.88;1.48;;;20.00;37.70;;;;;;5043665;28;20433;-62
2024/02/13 04:36:21;;;;;;;2.58;1.55;;;19.90;37.70;;;;;;5051021;28;20025;-61
2024/02/13 04:38:47;;;;;;;2.72;1.50;;;19.90;37.70;;;;;;5041690;28;20476;-62
2024/02/13 04:41:13;;;;;;;2.40;1.45;;;19.90;37.70;;;;;;5042900;28;20460;-63
2024/02/13 04:43:40;;;;;;;1.85;1.30;;;19.90;37.70;;;;;;5035900;28;20037;-62
2024/02/13 04:46:06;;;;;;;2.85;1.60;;;19.90;37.70;;;;;;5048891;28;20040;-63
2024/02/13 04:48:31;;;;;;;2.60;1.48;;;19.90;37.70;;;;;;5047321;28;20344;-62
2024/02/13 04:50:57;;;;;;;2.60;1.60;;;19.90;37.70;;;;;;5048555;28;20083;-62
2024/02/13 04:53:23;;;;;;;2.03;1.60;;;19.90;37.70;;;;;;5049228;28;20026;-62
2024/02/13 04:55:49;;;;;;;3.35;1.60;;;19.90;37.70;;;;;;5051878;28;20119;-63
2024/02/13 04:58:18;;;;;;;2.10;1.30;;;19.90;37.70;;;;;;5054176;28;20100;-63
2024/02/13 05:00:51;;;;;;;1.75;1.25;;;19.90;37.70;;;;;;5048554;28;20407;-62
2024/02/13 05:03:25;;;;;;;3.05;1.60;;;19.90;37.70;;;;;;5049680;28;20040;-62
2024/02/13 05:08:37;;;;;;;;;;;19.90;37.70;;;;;;5047628;28;19920;-62
2024/02/13 05:11:02;;;;;;;2.78;1.35;;;19.80;37.70;;;;;;5046670;28;20004;-61
2024/02/13 05:13:31;;;;;;;3.05;1.92;;;19.80;37.70;;;;;;5047980;28;20028;-62
2024/02/13 05:15:59;;;;;;;3.08;1.70;;;19.80;37.70;;;;;;5049733;28;20033;-63
2024/02/13 05:18:24;;;;;;;2.53;1.50;;;19.80;37.70;;;;;;5048190;28;20105;-62
2024/02/13 05:20:50;;;;;;;3.13;1.35;;;19.80;37.70;;;;;;5048799;28;20140;-64
2024/02/13 05:23:16;;;;;;;1.90;1.30;;;19.80;37.70;;;;;;5049465;28;20082;-63
2024/02/13 05:25:42;;;;;;;3.00;1.70;;;19.80;37.70;;;;;;5048704;28;20095;-63
2024/02/13 05:28:09;;;;;;;2.65;1.25;;;19.80;37.70;;;;;;5046650;28;20078;-63
2024/02/13 05:30:36;;;;;;;2.53;1.40;;;19.80;37.70;;;;;;5048937;28;20033;-62
2024/02/13 05:33:02;;;;;;;2.42;1.20;;;19.80;37.70;;;;;;5030909;28;20393;-64
2024/02/13 05:35:28;;;;;;;1.67;1.30;;;19.80;37.70;;;;;;5046153;28;20052;-64
2024/02/13 05:37:53;;;;;;;2.45;1.58;;;19.80;37.70;;;;;;5044393;28;20021;-62
2024/02/13 05:40:20;;;;;;;2.45;1.60;;;19.80;37.60;;;;;;5026349;28;20053;-64
2024/02/13 05:42:45;;;;;;;2.50;1.70;;;19.80;37.70;;;;;;5045921;28;20021;-61
2024/02/13 05:45:11;;;;;;;2.20;1.58;;;19.80;37.60;;;;;;5023955;28;20040;-62
2024/02/13 05:47:37;;;;;;;2.72;1.40;;;19.80;37.60;;;;;;5042655;28;20025;-64
2024/02/13 05:50:06;;;;;;;2.60;1.50;;;19.80;37.60;;;;;;5044848;28;20037;-64
2024/02/13 05:52:33;;;;;;;2.33;1.50;;;19.80;37.60;;;;;;5042218;28;20049;-62
2024/02/13 05:54:59;;;;;;;2.33;1.50;;;19.80;37.60;;;;;;5042409;28;20055;-64
2024/02/13 05:57:25;;;;;;;3.13;1.80;;;19.80;37.60;;;;;;5043874;28;20032;-64
2024/02/13 05:59:51;;;;;;;2.90;1.50;;;19.80;37.60;;;;;;5044841;28;20025;-63
2024/02/13 06:02:17;;;;;;;2.25;1.30;;;19.70;37.60;;;;;;5043960;28;20489;-63
2024/02/13 06:04:44;;;;;;;2.67;1.67;;;19.70;37.60;;;;;;5029851;28;20033;-63
2024/02/13 06:07:09;;;;;;;2.10;1.40;;;19.70;37.60;;;;;;5044263;28;20032;-63
2024/02/13 06:09:35;;;;;;;2.47;1.55;;;19.70;37.60;;;;;;5048603;28;20508;-63
2024/02/13 06:12:01;;;;;;;2.88;1.33;;;19.70;37.60;;;;;;5046289;28;20032;-63
2024/02/13 06:14:27;;;;;;;2.97;1.50;;;19.70;37.60;;;;;;5045696;28;20028;-63
2024/02/13 06:16:53;;;;;;;3.08;1.50;;;19.70;37.60;;;;;;5047383;28;20036;-64
2024/02/13 06:19:19;;;;;;;1.92;1.27;;;19.70;37.60;;;;;;5046110;28;20033;-65
2024/02/13 06:21:45;;;;;;;2.70;1.60;;;19.70;37.60;;;;;;5045264;28;20064;-62
2024/02/13 06:24:10;;;;;;;2.55;1.73;;;19.70;37.60;;;;;;5040683;28;20039;-62
2024/02/13 06:26:37;;;;;;;2.55;1.80;;;19.70;37.60;;;;;;5045894;28;20036;-63
2024/02/13 06:29:05;;;;;;;2.63;1.30;;;19.70;37.60;;;;;;5029288;28;20025;-63
2024/02/13 06:31:32;;;;;;;2.92;1.40;;;19.70;37.60;;;;;;5042140;28;20447;-63
2024/02/13 06:33:58;;;;;;;4.53;1.80;;;19.70;37.60;;;;;;5040387;28;20033;-63
2024/02/13 06:36:26;;;;;;;1.85;1.30;;;19.70;37.60;;;;;;5045856;28;20033;-63
2024/02/13 06:38:53;;;;;;;3.22;1.60;;;19.70;37.60;;;;;;5044675;28;20076;-63
2024/02/13 06:41:18;;;;;;;2.83;1.48;;;19.60;37.60;;;;;;5043496;28;20045;-62
2024/02/13 06:43:45;;;;;;;2.42;1.40;;;19.70;37.60;;;;;;5042652;28;20094;-63
2024/02/13 06:46:12;;;;;;;2.10;1.48;;;19.60;37.60;;;;;;5027289;28;20642;-62
2024/02/13 06:48:39;;;;;;;1.77;1.13;;;19.60;37.60;;;;;;5045642;28;20030;-62
2024/02/13 06:51:05;;;;;;;2.55;1.40;;;19.60;37.60;;;;;;5046184;28;20029;-63
2024/02/13 06:53:31;;;;;;;3.47;1.30;;;19.60;37.60;;;;;;5042820;28;20051;-63
2024/02/13 06:55:58;;;;;;;2.65;1.50;;;19.60;37.60;;;;;;5045259;28;20052;-64
2024/02/13 06:58:23;;;;;;;2.10;1.35;;;19.60;37.60;;;;;;5043934;28;20033;-63
2024/02/13 07:00:51;;;;;;;2.72;1.35;;;19.60;37.60;;;;;;5039657;28;20044;-62
2024/02/13 07:03:17;;;;;;;2.47;1.60;;;19.60;37.60;;;;;;5024806;28;20017;-62
2024/02/13 07:05:43;;;;;;;2.83;1.40;;;19.70;37.70;;;;;;5043130;28;20123;-64
2024/02/13 07:08:09;;;;;;;1.60;1.13;;;19.70;37.70;;;;;;5043786;28;20042;-61
2024/02/13 07:10:35;;;;;;;3.67;1.63;;;19.60;37.60;;;;;;5023891;28;20175;-63
2024/02/13 07:13:01;;;;;;;3.75;1.40;;;19.60;37.70;;;;;;5044408;28;20025;-63
2024/02/13 07:15:26;;;;;;;1.92;1.40;;;19.60;37.80;;;;;;5024513;28;20047;-63
2024/02/13 07:17:52;;;;;;;2.17;1.30;;;19.60;37.70;;;;;;5047117;28;20416;-62
2024/02/13 07:20:18;;;;;;;2.15;1.30;;;19.60;37.70;;;;;;5040524;28;20456;-64
2024/02/13 07:22:44;;;;;;;3.70;1.42;;;19.60;37.70;;;;;;5035957;28;20033;-64
2024/02/13 07:25:10;;;;;;;2.17;1.38;;;19.60;37.70;;;;;;5045339;28;20475;-63
2024/02/13 07:27:37;;;;;;;2.40;1.38;;;19.60;37.80;;;;;;5045163;28;20100;-63
2024/02/13 07:30:07;;;;;;;2.08;1.33;;;19.60;37.70;;;;;;5039533;28;20033;-62
2024/02/13 07:32:33;;;;;;;2.53;1.10;;;19.60;37.70;;;;;;5045699;28;20025;-62
2024/02/13 07:35:03;;;;;;;2.33;1.10;;;19.60;37.70;;;;;;5041921;28;20037;-60
2024/02/13 07:37:31;;;;;;;1.60;1.10;;;19.60;37.70;;;;;;5025049;28;20033;-63
2024/02/13 07:40:00;;;;;;;1.83;1.25;;;19.60;37.70;;;;;;5041729;28;20060;-64
2024/02/13 07:42:28;;;;;;;2.50;1.42;;;19.60;37.70;;;;;;5038877;28;20112;-62
2024/02/13 07:44:58;;;;;;;1.70;1.05;;;19.60;37.70;;;;;;5025454;28;20431;-63
2024/02/13 07:47:28;;;;;;;3.00;1.33;;;19.60;37.70;;;;;;5043054;28;20021;-62
2024/02/13 07:50:00;;;;;;;2.90;1.25;;;19.60;37.70;;;;;;5042383;28;20030;-63
2024/02/13 07:52:25;;;;;;;2.83;1.30;;;19.60;37.70;;;;;;5047342;28;20084;-62
2024/02/13 07:54:51;;;;;;;3.00;1.15;;;19.60;37.70;;;;;;5038381;28;20393;-63
2024/02/13 07:57:18;;;;;;;2.38;1.13;;;19.60;37.70;;;;;;5042270;28;20372;-62
2024/02/13 07:59:44;;;;;;;1.42;0.85;;;19.60;37.70;;;;;;5024787;28;20030;-62
2024/02/13 08:02:10;;;;;;;2.63;1.10;;;19.60;37.70;;;;;;5042429;28;20108;-63
2024/02/13 08:04:39;;;;;;;4.10;1.17;;;19.60;37.70;;;;;;5024881;28;20041;-62
2024/02/13 08:07:07;;;;;;;2.53;1.13;;;19.60;37.70;;;;;;5047849;28;20037;-64
2024/02/13 08:09:33;;;;;;;2.08;1.15;;;19.60;37.80;;;;;;5050485;28;20431;-63
2024/02/13 08:12:05;;;;;;;2.30;1.25;;;19.50;37.70;;;;;;5043847;28;20063;-62
2024/02/13 08:14:32;;;;;;;2.25;1.20;;;19.60;38.40;;;;;;5040528;28;20131;-64
2024/02/13 08:16:58;;;;;;;3.58;1.00;;;19.60;37.70;;;;;;5042008;28;20025;-62
2024/02/13 08:19:26;;;;;;;2.88;1.17;;;19.60;37.80;;;;;;5052688;28;20456;-63
2024/02/13 08:21:52;;;;;;;2.10;1.10;;;19.60;37.80;;;;;;5044932;28;20025;-62
2024/02/13 08:24:17;;;;;;;2.60;1.00;;;19.60;37.80;;;;;;5047853;28;20052;-63
2024/02/13 08:26:43;;;;;;;2.92;1.27;;;19.60;37.80;;;;;;5047195;28;20075;-61
2024/02/13 08:29:09;;;;;;;3.90;0.90;;;19.60;37.90;;;;;;5040983;28;20040;-61
2024/02/13 08:31:35;;;;;;;3.17;1.10;;;19.60;38.00;;;;;;5020678;28;20415;-63
2024/02/13 08:34:02;;;;;;;2.35;1.02;;;19.60;38.00;;;;;;5036469;28;20025;-64
2024/02/13 08:36:29;;;;;;;5.88;1.50;;;19.60;38.00;;;;;;5044037;28;20021;-61
2024/02/13 08:38:55;;;;;;;2.40;1.02;;;19.60;38.00;;;;;;5044372;28;20042;-62
2024/02/13 08:41:22;;;;;;;1.48;0.98;;;19.60;38.00;;;;;;5041583;28;20052;-62
2024/02/13 08:43:48;;;;;;;2.85;1.20;;;19.60;38.00;;;;;;5037481;28;20026;-62
2024/02/13 08:46:18;;;;;;;2.35;1.30;;;19.60;38.00;;;;;;5044215;28;20534;-62
2024/02/13 08:48:45;;;;;;;2.65;1.20;;;19.60;38.00;;;;;;5045212;28;20033;-62
2024/02/13 08:51:13;;;;;;;2.58;0.93;;;19.60;38.00;;;;;;5043506;28;20033;-61
2024/02/13 08:53:39;;;;;;;2.40;1.17;;;19.60;38.00;;;;;;5034243;28;20108;-62
2024/02/13 08:56:05;;;;;;;2.70;1.00;;;19.60;38.00;;;;;;5042805;28;20126;-62
2024/02/13 08:58:31;;;;;;;2.58;1.42;;;19.60;37.90;;;;;;5038073;28;20033;-61
2024/02/13 09:00:56;;;;;;;4.18;1.33;;;19.60;37.90;;;;;;5043237;28;20036;-62
2024/02/13 09:03:22;;;;;;;2.00;1.00;;;19.60;37.90;;;;;;5045476;28;20104;-62
2024/02/13 09:05:48;;;;;;;2.85;1.33;;;19.60;38.00;;;;;;5049634;28;20108;-62
2024/02/13 09:08:14;;;;;;;4.55;1.30;;;19.60;38.00;;;;;;5046840;28;20340;-61
2024/02/13 09:10:41;;;;;;;1.80;1.00;;;19.70;38.10;;;;;;5046522;28;20494;-62
2024/02/13 09:13:06;;;;;;;2.05;1.08;;;19.70;38.10;;;;;;5047420;28;20044;-62
2024/02/13 09:15:32;;;;;;;2.38;1.00;;;19.70;38.10;;;;;;5046127;28;20119;-62
2024/02/13 09:17:58;;;;;;;2.85;1.17;;;19.70;38.10;;;;;;5046696;28;20091;-64
2024/02/13 09:20:24;;;;;;;2.70;1.00;;;19.70;38.00;;;;;;5044802;28;20360;-62
2024/02/13 09:22:50;;;;;;;1.65;0.90;;;19.80;38.10;;;;;;5041370;28;20112;-61
2024/02/13 09:25:17;;;;;;;2.47;0.80;;;19.80;38.00;;;;;;5046608;28;20113;-60
2024/02/13 09:27:44;;;;;;;1.63;0.82;;;19.90;38.10;;;;;;5049075;28;20033;-61
2024/02/13 09:30:13;;;;;;;3.72;1.05;;;19.90;38.10;;;;;;5044724;28;20364;-63
2024/02/13 09:32:39;;;;;;;1.02;0.63;;;20.00;38.10;;;;;;5044767;28;20048;-63
2024/02/13 09:35:07;;;;;;;2.35;1.00;;;20.10;38.10;;;;;;5039420;28;20441;-62
2024/02/13 09:37:39;;;;;;;2.40;0.85;;;20.10;38.10;;;;;;5050896;28;20036;-63
2024/02/13 09:40:14;;;;;;;2.53;0.93;;;20.10;38.00;;;;;;5051743;28;20087;-63
2024/02/13 09:42:45;;;;;;;2.10;1.17;;;20.20;38.10;;;;;;5050584;28;20021;-62
2024/02/13 09:45:16;;;;;;;1.63;0.80;;;20.20;38.00;;;;;;5039095;28;20037;-62
2024/02/13 09:47:42;;;;;;;2.28;0.70;;;20.30;38.00;;;;;;5046814;28;20037;-63
2024/02/13 09:50:14;;;;;;;3.17;1.20;;;20.30;38.00;;;;;;5039216;28;20044;-63
2024/02/13 09:52:55;;;;;;;1.83;0.80;;;20.30;37.90;;;;;;5040894;28;20049;-62
2024/02/13 09:55:24;;;;;;;2.45;1.08;;;20.40;37.90;;;;;;5039307;28;20025;-62
2024/02/13 09:57:51;;;;;;;2.70;0.85;;;20.40;37.80;;;;;;5046718;28;20042;-63
2024/02/13 10:00:18;;;;;;;1.75;0.80;;;20.40;37.80;;;;;;5042381;28;20114;-64
2024/02/13 10:02:44;;;;;;;2.63;0.85;;;20.40;37.70;;;;;;5038469;28;20364;-63
2024/02/13 10:05:11;;;;;;;2.58;0.80;;;20.50;37.70;;;;;;5038623;28;20116;-63
2024/02/13 10:07:38;;;;;;;1.60;0.80;;;20.50;37.70;;;;;;5043939;28;20499;-64
2024/02/13 10:10:10;;;;;;;2.40;0.98;;;20.50;37.60;;;;;;5051774;28;20025;-63
2024/02/13 10:12:59;;;;;;;1.90;0.80;;;20.60;37.70;;;;;;5042841;28;20032;-62
2024/02/13 10:15:42;;;;;;;2.75;1.08;;;20.60;37.60;;;;;;5050812;28;20028;-61
2024/02/13 10:18:11;;;;;;;2.17;0.80;;;20.60;37.60;;;;;;5029909;28;20029;-68
2024/02/13 10:20:38;;;;;;;1.38;0.50;;;20.60;37.50;;;;;;5044687;28;20037;-67
2024/02/13 10:23:05;;;;;;;3.53;0.98;;;20.70;37.60;;;;;;5043283;28;20499;-63
2024/02/13 10:25:31;;;;;;;2.17;0.90;;;20.70;37.70;;;;;;5046936;28;20086;-65
2024/02/13 10:28:01;;;;;;;1.52;0.82;;;20.70;37.80;;;;;;5044745;28;20025;-64
2024/02/13 10:30:30;;;;;;;2.03;0.90;;;20.80;37.80;;;;;;5038183;28;20432;-63
2024/02/13 10:33:06;;;;;;;1.73;0.60;;;20.80;37.80;;;;;;5044637;28;20039;-63
2024/02/13 10:35:33;;;;;;;3.97;1.15;;;20.80;37.70;;;;;;5051662;28;20025;-64
2024/02/13 10:37:59;;;;;;;1.88;0.90;;;20.80;37.70;;;;;;5042278;28;20037;-64
2024/02/13 10:40:27;;;;;;;3.55;1.20;;;20.80;37.50;;;;;;5038801;28;20053;-64
2024/02/13 10:42:57;;;;;;;1.13;0.70;;;20.80;37.50;;;;;;5050319;28;20072;-64
2024/02/13 10:45:30;;;;;;;1.75;0.95;;;20.90;37.50;;;;;;5047562;28;20036;-63
2024/02/13 10:48:28;;;;;;;1.98;1.02;;;20.90;38.10;;;;;;5043747;28;20033;-63
2024/02/13 10:50:57;;;;;;;1.45;0.80;;;20.90;37.40;;;;;;5001273;28;20358;-64
2024/02/13 10:53:24;;;;;;;2.05;0.90;;;20.90;37.40;;;;;;5040150;28;20106;-64
2024/02/13 10:55:55;;;;;;;2.45;1.10;;;20.90;37.40;;;;;;5043436;28;20021;-64
2024/02/13 10:58:29;;;;;;;1.83;0.70;;;20.90;37.40;;;;;;5043955;28;20047;-64
2024/02/13 11:00:56;;;;;;;;;;;20.90;37.40;;;;;;5046253;28;20071;-64
2024/02/13 11:03:22;;;;;;;1.98;0.95;;;20.90;37.40;;;;;;5037620;28;20453;-65
2024/02/13 11:05:49;;;;;;;1.60;0.70;;;20.80;37.40;;;;;;5041626;28;20260;-63
2024/02/13 11:08:16;;;;;;;2.05;0.90;;;20.90;37.50;;;;;;5048911;28;20036;-63
2024/02/13 11:10:42;;;;;;;2.03;0.80;;;20.90;37.50;;;;;;5043302;28;20029;-65
2024/02/13 11:13:12;;;;;;;1.95;0.80;;;20.80;37.50;;;;;;5040978;28;20124;-64
2024/02/13 11:15:39;;;;;;;3.03;1.25;;;20.80;37.50;;;;;;5046357;28;20082;-64
2024/02/13 11:18:13;;;;;;;3.20;1.00;;;20.90;37.50;;;;;;5049918;28;20091;-65
2024/02/13 11:20:42;;;;;;;1.80;0.70;;;20.90;37.50;;;;;;5048502;28;20047;-65
2024/02/13 11:23:15;;;;;;;2.22;0.88;;;20.80;37.50;;;;;;5032741;28;20448;-64
2024/02/13 11:25:42;;;;;;;1.52;0.70;;;20.90;37.70;;;;;;5048748;28;20390;-63
2024/02/13 11:28:11;;;;;;;1.50;0.70;;;20.90;37.80;;;;;;5047144;28;20071;-61
2024/02/13 11:30:38;;;;;;;3.75;0.80;;;20.80;37.80;;;;;;5038069;28;20456;-65
2024/02/13 11:33:08;;;;;;;2.58;0.70;;;20.80;37.90;;;;;;5035059;28;20071;-62
2024/02/13 11:35:44;;;;;;;1.25;0.85;;;20.80;37.80;;;;;;5052071;28;20029;-67
2024/02/13 11:38:12;;;;;;;1.00;0.60;;;20.80;38.10;;;;;;5049520;28;20025;-65
2024/02/13 11:40:42;;;;;;;2.97;0.77;;;20.80;38.40;;;;;;5050172;28;20048;-62
2024/02/13 11:43:29;;;;;;;2.72;0.93;;;20.90;38.70;;;;;;5051824;28;20178;-66
2024/02/13 11:45:57;;;;;;;1.35;0.70;;;20.90;38.90;;;;;;5048474;28;20025;-64
2024/02/13 11:48:25;;;;;;;4.38;0.90;;;20.90;38.90;;;;;;5046546;28;20032;-62
2024/02/13 11:50:55;;;;;;;2.75;0.95;;;21.00;38.90;;;;;;5049537;28;20075;-62
2024/02/13 11:53:24;;;;;;;2.60;0.80;;;21.10;38.80;;;;;;5050184;28;20052;-64
2024/02/13 11:55:54;;;;;;;1.80;0.60;;;21.30;38.70;;;;;;5050080;28;20033;-63
2024/02/13 11:58:22;;;;;;;1.20;0.55;;;21.40;38.60;;;;;;5050887;28;20033;-64
2024/02/13 12:01:03;;;;;;;1.50;0.70;;;21.50;38.50;;;;;;5049885;28;20043;-66
2024/02/13 12:03:30;;;;;;;2.17;0.70;;;21.60;38.40;;;;;;5044168;28;20045;-65
2024/02/13 12:05:57;;;;;;;1.30;0.82;;;21.70;38.30;;;;;;5052275;28;20111;-65
2024/02/13 12:08:28;;;;;;;0.63;0.45;;;21.80;38.20;;;;;;5051619;28;20444;-63
2024/02/13 12:10:57;;;;;;;1.33;0.65;;;21.90;38.10;;;;;;5049327;28;20056;-61
2024/02/13 12:13:32;;;;;;;2.10;0.70;;;21.90;38.00;;;;;;5053317;28;20025;-65
2024/02/13 12:16:00;;;;;;;1.40;0.77;;;22.00;37.90;;;;;;5035610;28;20367;-66
2024/02/13 12:18:27;;;;;;;1.70;0.88;;;22.00;37.80;;;;;;5048680;28;20063;-65
2024/02/13 12:20:54;;;;;;;1.27;0.70;;;22.10;37.80;;;;;;5048241;28;20090;-65
2024/02/13 12:23:20;;;;;;;1.58;0.70;;;22.10;37.70;;;;;;5052839;28;20032;-65
2024/02/13 12:25:46;;;;;;;1.02;0.60;;;22.20;37.70;;;;;;5048625;28;20068;-70
2024/02/13 12:28:17;;;;;;;1.60;0.68;;;22.20;37.60;;;;;;5052875;28;20029;-67
2024/02/13 12:30:47;;;;;;;1.98;0.80;;;22.30;37.60;;;;;;5051059;28;20382;-67
2024/02/13 12:33:20;;;;;;;2.30;0.70;;;22.30;37.50;;;;;;5035791;28;20099;-68
2024/02/13 12:36:05;;;;;;;1.20;0.57;;;22.30;37.50;;;;;;5034716;28;20431;-69
2024/02/13 12:38:31;;;;;;;1.23;0.57;;;22.40;37.40;;;;;;5053901;28;20468;-68
2024/02/13 12:41:00;;;;;;;1.55;0.93;;;22.40;37.40;;;;;;5053699;28;20041;-70
2024/02/13 12:43:29;;;;;;;1.85;0.60;;;22.50;37.30;;;;;;5052297;28;20028;-69
2024/02/13 12:45:58;;;;;;;0.95;0.50;;;22.50;37.30;;;;;;5045564;28;20032;-64
2024/02/13 12:48:27;;;;;;;3.20;0.80;;;22.50;37.40;;;;;;5057610;28;20025;-65
2024/02/13 12:50:56;;;;;;;1.48;0.60;;;22.50;37.50;;;;;;5054927;28;20032;-64